Time;durP1;ratioP1;P1;durP2;ratioP2;P2;SDS_P1;SDS_P2;PMS_P1;PMS_P2;Temp;Humidity;BMP_temperature;BMP_pressure;BME280_temperature;BME280_humidity;BME280_pressure;Samples;Min_cycle;Max_cycle;Signal;HPM_P1;HPM_P2
2020/12/24 00:00:47;;;;;;;28.25;13.53;;;;;;;1.00;89.59;98718.66;1781826;79;21061;-72
2020/12/24 00:03:15;;;;;;;35.43;12.37;;;;;;;1.02;89.63;98705.34;1774447;79;21901;-71
2020/12/24 00:05:42;;;;;;;29.32;12.20;;;;;;;1.06;89.56;98705.64;1778714;79;21065;-71
2020/12/24 00:08:09;;;;;;;32.63;12.70;;;;;;;1.06;89.56;98705.64;1773704;79;21597;-72
2020/12/24 00:10:36;;;;;;;26.55;12.33;;;;;;;1.07;89.58;98690.64;1774248;79;21023;-71
2020/12/24 00:13:03;;;;;;;28.35;12.95;;;;;;;1.09;89.59;98678.60;1770720;79;21204;-71
2020/12/24 00:15:30;;;;;;;32.15;14.25;;;;;;;1.15;89.61;98684.45;1774005;79;21190;-71
2020/12/24 00:17:57;;;;;;;29.00;13.15;;;;;;;1.15;89.58;98672.88;1770688;79;21017;-71
2020/12/24 00:20:25;;;;;;;36.60;13.65;;;;;;;1.17;89.58;98673.69;1778239;79;20990;-71
2020/12/24 00:22:52;;;;;;;30.68;13.15;;;;;;;1.20;89.59;98678.75;1773832;79;21207;-71
2020/12/24 00:25:19;;;;;;;35.05;13.60;;;;;;;1.22;89.62;98668.83;1781469;79;21097;-71
2020/12/24 00:27:46;;;;;;;29.40;12.53;;;;;;;1.26;89.58;98663.16;1783902;79;21406;-71
2020/12/24 00:30:13;;;;;;;34.08;14.47;;;;;;;1.24;89.51;98662.38;1777616;79;21161;-72
2020/12/24 00:32:40;;;;;;;34.78;14.47;;;;;;;1.25;89.47;98657.63;1778689;79;21087;-72
2020/12/24 00:35:07;;;;;;;43.02;15.45;;;;;;;1.22;89.45;98649.98;1774025;79;21042;-71
2020/12/24 00:37:35;;;;;;;44.25;16.57;;;;;;;1.22;89.49;98647.42;1777563;79;21594;-71
2020/12/24 00:40:04;;;;;;;33.98;15.23;;;;;;;1.20;89.44;98651.75;1781145;79;22354;-71
2020/12/24 00:42:32;;;;;;;33.65;16.07;;;;;;;1.16;89.41;98641.16;1776005;79;21638;-72
2020/12/24 00:44:59;;;;;;;31.97;15.32;;;;;;;1.10;89.44;98635.73;1772847;79;21657;-71
2020/12/24 00:47:26;;;;;;;28.47;16.15;;;;;;;1.05;89.46;98626.84;1769698;79;20993;-71
2020/12/24 00:49:54;;;;;;;35.48;16.25;;;;;;;1.00;89.44;98629.98;1769905;79;21000;-71
2020/12/24 00:52:21;;;;;;;31.23;15.18;;;;;;;0.97;89.49;98638.22;1774748;78;22367;-71
2020/12/24 00:54:48;;;;;;;36.68;17.48;;;;;;;0.93;89.51;98637.46;1772411;79;20996;-72
2020/12/24 00:57:15;;;;;;;31.37;15.68;;;;;;;0.88;89.54;98632.88;1774756;80;21027;-71
2020/12/24 00:59:42;;;;;;;29.92;15.65;;;;;;;0.86;89.61;98635.91;1783313;79;20999;-72
2020/12/24 01:02:09;;;;;;;33.80;17.60;;;;;;;0.84;89.61;98622.25;1780974;79;20979;-72
2020/12/24 01:04:36;;;;;;;35.05;15.68;;;;;;;0.81;89.66;98624.91;1780406;79;21227;-72
2020/12/24 01:07:03;;;;;;;27.80;15.55;;;;;;;0.81;89.73;98614.21;1774248;79;21075;-72
2020/12/24 01:09:31;;;;;;;31.50;15.25;;;;;;;0.81;89.79;98610.77;1777239;79;21060;-71
2020/12/24 01:11:58;;;;;;;32.48;15.43;;;;;;;0.81;89.83;98603.06;1776387;79;21146;-72
2020/12/24 01:14:25;;;;;;;26.07;14.53;;;;;;;0.83;89.87;98594.88;1774359;79;21026;-72
2020/12/24 01:16:52;;;;;;;29.05;13.75;;;;;;;0.85;89.86;98595.69;1774368;80;22150;-71
2020/12/24 01:19:19;;;;;;;29.90;15.03;;;;;;;0.87;89.94;98588.34;1774196;79;21039;-72
2020/12/24 01:21:47;;;;;;;22.73;13.68;;;;;;;0.87;89.89;98579.80;1778572;79;20995;-71
2020/12/24 01:24:15;;;;;;;26.07;13.80;;;;;;;0.90;89.92;98577.15;1771831;79;21020;-71
2020/12/24 01:26:48;;;;;;;;;;;;;;;0.91;89.86;98565.97;1778864;80;21050;-72
2020/12/24 01:29:16;;;;;;;21.68;12.70;;;;;;;0.93;89.87;98551.36;1778736;79;21417;-70
2020/12/24 01:31:47;;;;;;;22.82;12.30;;;;;;;0.93;89.88;98548.79;1774801;79;21228;-71
2020/12/24 01:34:18;;;;;;;23.27;12.00;;;;;;;0.94;89.90;98540.19;1776034;79;21179;-70
2020/12/24 01:36:46;;;;;;;20.80;11.40;;;;;;;0.95;90.01;98533.31;1777582;79;21048;-71
2020/12/24 01:39:14;;;;;;;22.75;12.20;;;;;;;0.96;90.05;98529.43;1785727;78;21198;-71
2020/12/24 01:41:41;;;;;;;17.73;10.70;;;;;;;0.97;90.05;98518.25;1774343;79;21589;-70
2020/12/24 01:44:09;;;;;;;15.65;9.50;;;;;;;0.98;90.08;98509.67;1774186;79;21139;-70
2020/12/24 01:46:36;;;;;;;16.50;9.78;;;;;;;1.01;90.04;98498.02;1773731;79;21117;-70
2020/12/24 01:49:03;;;;;;;15.85;9.80;;;;;;;1.04;90.13;98500.50;1772313;79;21094;-70
2020/12/24 01:51:35;;;;;;;14.00;9.60;;;;;;;1.06;90.16;98495.30;1765110;79;21206;-70
2020/12/24 01:54:03;;;;;;;13.72;8.53;;;;;;;1.09;90.22;98495.20;1776565;79;22152;-71
2020/12/24 01:56:31;;;;;;;15.63;9.73;;;;;;;1.09;90.27;98475.52;1774762;78;21102;-70
2020/12/24 01:58:58;;;;;;;14.75;9.48;;;;;;;1.10;90.19;98463.05;1775282;79;21516;-70
2020/12/24 02:01:25;;;;;;;14.55;8.93;;;;;;;1.14;90.29;98462.50;1774109;79;20964;-70
2020/12/24 02:03:52;;;;;;;16.50;9.48;;;;;;;1.14;90.33;98456.53;1780172;79;21016;-70
2020/12/24 02:06:20;;;;;;;11.03;8.38;;;;;;;1.16;90.27;98452.19;1775959;79;21593;-69
2020/12/24 02:08:48;;;;;;;11.50;7.05;;;;;;;1.21;90.29;98433.61;1780897;79;21048;-69
2020/12/24 02:11:15;;;;;;;13.58;6.53;;;;;;;1.25;90.30;98415.91;1775875;79;20953;-69
2020/12/24 02:13:42;;;;;;;10.98;6.22;;;;;;;1.28;90.58;98406.81;1778636;79;21785;-69
2020/12/24 02:16:09;;;;;;;8.38;5.95;;;;;;;1.28;90.58;98406.81;1780106;79;20994;-69
2020/12/24 02:18:36;;;;;;;7.25;5.15;;;;;;;1.31;90.51;98401.57;1779233;79;21054;-69
2020/12/24 02:21:04;;;;;;;8.05;4.78;;;;;;;1.37;90.52;98409.09;1777211;80;21090;-69
2020/12/24 02:23:31;;;;;;;8.33;4.90;;;;;;;1.41;90.62;98411.98;1779715;79;21008;-69
2020/12/24 02:25:58;;;;;;;6.87;5.30;;;;;;;1.46;90.61;98406.70;1778402;79;21064;-69
2020/12/24 02:28:25;;;;;;;7.35;5.28;;;;;;;1.50;90.59;98385.96;1782267;79;21129;-69
2020/12/24 02:30:53;;;;;;;7.47;5.25;;;;;;;1.52;90.59;98381.61;1771646;79;21193;-69
2020/12/24 02:33:21;;;;;;;6.33;4.47;;;;;;;1.54;90.60;98369.55;1778200;79;21147;-69
2020/12/24 02:35:49;;;;;;;7.33;4.83;;;;;;;1.56;90.55;98363.89;1781177;78;21199;-70
2020/12/24 02:38:16;;;;;;;5.92;4.58;;;;;;;1.52;90.57;98364.89;1780708;80;21064;-69
2020/12/24 02:40:44;;;;;;;7.30;5.08;;;;;;;1.53;90.60;98357.56;1775863;79;21107;-70
2020/12/24 02:43:11;;;;;;;6.42;4.87;;;;;;;1.54;90.63;98356.69;1777218;79;21407;-70
2020/12/24 02:45:38;;;;;;;7.17;5.17;;;;;;;1.53;90.72;98345.98;1776038;79;21036;-70
2020/12/24 02:48:06;;;;;;;8.13;5.72;;;;;;;1.53;90.74;98346.44;1776446;79;20985;-70
2020/12/24 02:50:33;;;;;;;8.70;5.35;;;;;;;1.53;90.85;98335.70;1773389;79;21172;-70
2020/12/24 02:53:00;;;;;;;8.43;5.67;;;;;;;1.52;90.82;98332.73;1768127;80;21069;-70
2020/12/24 02:55:28;;;;;;;7.25;5.53;;;;;;;1.53;90.86;98329.27;1780037;79;24938;-70
2020/12/24 02:57:55;;;;;;;8.33;5.85;;;;;;;1.53;90.84;98323.28;1770097;79;21277;-71
2020/12/24 03:00:22;;;;;;;8.98;5.95;;;;;;;1.52;90.94;98329.33;1773189;79;20997;-70
2020/12/24 03:02:49;;;;;;;9.00;5.47;;;;;;;1.51;90.84;98307.92;1775537;79;21589;-70
2020/12/24 03:05:16;;;;;;;7.90;5.97;;;;;;;1.49;90.93;98304.55;1776757;79;21038;-70
2020/12/24 03:07:52;;;;;;;8.28;6.28;;;;;;;1.47;90.86;98311.47;1775632;79;21433;-70
2020/12/24 03:10:20;;;;;;;9.83;6.33;;;;;;;1.45;90.90;98300.38;1772554;79;20985;-71
2020/12/24 03:12:47;;;;;;;10.72;6.75;;;;;;;1.41;90.92;98303.95;1778191;79;20994;-70
2020/12/24 03:15:14;;;;;;;9.63;6.53;;;;;;;1.38;91.14;98296.34;1779086;79;21178;-70
2020/12/24 03:17:41;;;;;;;9.18;6.12;;;;;;;1.35;90.98;98284.88;1780097;80;20986;-70
2020/12/24 03:20:08;;;;;;;9.78;6.80;;;;;;;1.34;91.02;98280.19;1776609;79;21601;-70
2020/12/24 03:22:37;;;;;;;8.70;6.12;;;;;;;1.33;91.03;98277.65;1776353;79;21155;-71
2020/12/24 03:25:06;;;;;;;9.10;6.10;;;;;;;1.33;91.08;98278.94;1774170;79;21078;-70
2020/12/24 03:27:33;;;;;;;9.13;5.60;;;;;;;1.32;91.12;98268.27;1774418;80;21005;-70
2020/12/24 03:30:00;;;;;;;10.53;5.90;;;;;;;1.33;91.23;98263.05;1775876;79;21724;-70
2020/12/24 03:32:27;;;;;;;8.93;6.17;;;;;;;1.34;91.19;98261.31;1774597;79;21397;-70
2020/12/24 03:34:54;;;;;;;6.90;5.53;;;;;;;1.36;91.22;98256.97;1775703;79;21155;-71
2020/12/24 03:37:21;;;;;;;6.58;5.17;;;;;;;1.37;91.25;98257.35;1772760;79;28224;-71
2020/12/24 03:39:48;;;;;;;7.28;5.10;;;;;;;1.38;91.25;98252.62;1780685;79;21084;-71
2020/12/24 03:42:15;;;;;;;8.10;4.95;;;;;;;1.41;91.27;98257.66;1776210;79;20987;-72
2020/12/24 03:44:42;;;;;;;8.45;5.30;;;;;;;1.43;91.37;98266.17;1772387;79;21381;-72
2020/12/24 03:47:09;;;;;;;9.85;5.10;;;;;;;1.43;91.40;98255.89;1778069;79;20970;-71
2020/12/24 03:49:36;;;;;;;8.30;5.40;;;;;;;1.43;91.39;98258.46;1778431;79;21542;-71
2020/12/24 14:22:03;;;;;;;6.20;3.52;;;;;;;1.89;93.75;97969.88;1876951;75;22877;-65
2020/12/24 14:24:43;;;;;;;;;;;;;;;;;;;;;
2020/12/24 14:27:16;;;;;;;5.35;3.52;;;;;;;1.87;93.81;97980.67;1837885;76;22820;-69
2020/12/24 14:29:49;;;;;;;4.70;2.70;;;;;;;1.82;93.86;97990.34;1810244;77;21041;-67
2020/12/24 14:32:21;;;;;;;4.40;3.35;;;;;;;1.83;93.74;97994.58;1804683;77;21150;-66
2020/12/24 14:34:52;;;;;;;4.15;2.30;;;;;;;1.84;93.71;97988.52;1801003;77;21556;-66
2020/12/24 14:37:26;;;;;;;6.20;3.33;;;;;;;1.85;93.69;98005.66;1802181;77;21020;-65
2020/12/24 14:39:57;;;;;;;6.08;3.45;;;;;;;1.83;93.67;98007.44;1798787;77;21021;-67
2020/12/24 14:42:25;;;;;;;4.78;2.50;;;;;;;1.84;93.61;98006.53;1803865;78;21038;-66
2020/12/24 14:44:54;;;;;;;6.17;3.00;;;;;;;1.85;93.61;98009.94;1810043;77;21188;-66
2020/12/24 14:47:23;;;;;;;4.45;2.52;;;;;;;1.82;93.59;98016.08;1807549;77;21005;-66
2020/12/24 14:49:57;;;;;;;4.67;2.83;;;;;;;1.78;93.66;98014.50;1781543;78;21076;-66
2020/12/24 14:52:26;;;;;;;4.15;3.10;;;;;;;1.74;93.61;98013.79;1802827;78;21553;-66
2020/12/24 14:54:53;;;;;;;6.12;2.87;;;;;;;1.71;93.67;98019.48;1801737;78;21123;-66
2020/12/24 14:57:22;;;;;;;5.22;2.77;;;;;;;1.71;93.64;98024.20;1798472;78;22169;-66
2020/12/24 14:59:50;;;;;;;4.42;2.50;;;;;;;1.72;93.65;98025.03;1800156;78;21154;-66
2020/12/24 15:02:18;;;;;;;4.87;1.92;;;;;;;1.70;93.61;98029.39;1807358;78;21040;-66
2020/12/24 15:04:45;;;;;;;4.97;2.60;;;;;;;1.67;93.59;98030.34;1804321;78;21136;-67
2020/12/24 15:07:15;;;;;;;4.75;2.55;;;;;;;1.64;93.65;98029.64;1797073;78;21233;-67
2020/12/24 15:09:44;;;;;;;5.22;2.90;;;;;;;1.61;93.72;98040.88;1798425;78;21253;-66
2020/12/24 15:12:13;;;;;;;4.30;2.35;;;;;;;1.60;93.65;98046.06;1807221;78;21171;-66
2020/12/24 15:14:42;;;;;;;4.70;2.40;;;;;;;1.58;93.71;98040.16;1809981;78;21150;-66
2020/12/24 15:17:10;;;;;;;4.10;2.65;;;;;;;1.54;93.79;98037.71;1810402;77;21121;-66
2020/12/24 15:19:39;;;;;;;6.60;3.40;;;;;;;1.56;93.80;98050.50;1797103;78;21174;-67
2020/12/24 15:22:06;;;;;;;5.47;3.55;;;;;;;1.56;93.84;98046.19;1808068;78;21198;-67
2020/12/24 15:24:34;;;;;;;6.40;2.95;;;;;;;1.56;93.87;98053.91;1799449;78;21198;-66
2020/12/24 15:27:03;;;;;;;6.90;3.47;;;;;;;1.58;93.79;98059.45;1802749;78;21084;-66
2020/12/24 15:29:32;;;;;;;4.80;2.92;;;;;;;1.58;93.87;98063.31;1795517;78;21126;-66
2020/12/24 15:32:00;;;;;;;4.00;2.65;;;;;;;1.58;93.79;98063.31;1798897;78;21154;-66
2020/12/24 15:34:31;;;;;;;7.28;3.05;;;;;;;1.56;93.77;98069.34;1805445;78;21170;-66
2020/12/24 15:37:00;;;;;;;5.08;3.17;;;;;;;1.54;93.80;98068.58;1804934;78;21210;-66
2020/12/24 15:42:06;;;;;;;5.20;2.90;;;;;;;1.54;93.80;98077.58;1836378;76;22250;-67
2020/12/24 15:44:35;;;;;;;5.45;3.02;;;;;;;1.46;93.77;98082.17;1843461;77;20913;-66
2020/12/24 15:47:07;;;;;;;4.83;2.45;;;;;;;1.44;93.61;98089.09;1849527;76;21402;-66
2020/12/24 15:49:36;;;;;;;8.38;3.27;;;;;;;1.40;93.58;98086.25;1845218;77;20924;-66
2020/12/24 15:52:05;;;;;;;4.28;2.50;;;;;;;1.37;93.62;98101.77;1849103;76;21019;-66
2020/12/24 15:54:35;;;;;;;4.03;2.35;;;;;;;1.33;93.57;98096.36;1842084;77;21513;-66
2020/12/24 15:57:04;;;;;;;6.50;2.40;;;;;;;1.26;93.44;98106.45;1847519;76;20971;-66
2020/12/24 15:59:32;;;;;;;4.28;2.22;;;;;;;1.19;93.39;98105.02;1848772;76;21257;-66
2020/12/24 16:02:01;;;;;;;5.80;2.80;;;;;;;1.14;93.44;98120.59;1844407;76;20984;-66
2020/12/24 16:04:30;;;;;;;6.15;2.45;;;;;;;1.10;93.54;98121.59;1850201;76;21618;-66
2020/12/24 16:06:59;;;;;;;3.75;2.60;;;;;;;1.07;93.57;98116.11;1852128;76;21181;-66
2020/12/24 16:09:28;;;;;;;5.65;2.90;;;;;;;1.06;93.67;98137.55;1850011;77;21003;-67
2020/12/24 16:11:56;;;;;;;3.65;2.30;;;;;;;1.05;93.66;98114.48;1816914;77;21301;-66
2020/12/24 16:14:24;;;;;;;5.10;2.15;;;;;;;1.04;93.94;98125.22;1845966;76;21256;-67
2020/12/24 16:16:52;;;;;;;;;;;;;;;1.05;94.11;98108.89;1844809;76;20936;-67
2020/12/24 16:19:20;;;;;;;2.95;1.77;;;;;;;1.09;94.04;98123.33;1845600;76;20606;-66
2020/12/24 16:22:09;;;;;;;4.10;1.65;;;;;;;1.14;94.05;98121.88;1847251;76;21237;-67
2020/12/24 16:24:37;;;;;;;1.87;1.42;;;;;;;1.18;94.16;98129.05;1844458;77;21208;-67
2020/12/24 16:27:05;;;;;;;4.78;1.90;;;;;;;1.21;94.51;98128.94;1848540;76;21181;-67
2020/12/24 16:29:36;;;;;;;4.25;1.92;;;;;;;1.27;94.34;98136.44;1851398;76;21086;-67
2020/12/24 16:32:06;;;;;;;6.35;3.70;;;;;;;1.29;94.34;98135.95;1846122;77;21156;-67
2020/12/24 16:34:34;;;;;;;8.48;3.35;;;;;;;1.32;94.40;98134.55;1835794;76;21115;-67
2020/12/24 16:37:04;;;;;;;4.65;2.60;;;;;;;1.33;94.30;98128.50;1833760;76;21214;-68
2020/12/24 16:39:33;;;;;;;6.20;3.55;;;;;;;1.35;94.28;98137.01;1838824;76;21594;-67
2020/12/24 16:42:07;;;;;;;4.55;2.80;;;;;;;1.36;94.15;98137.39;1846216;77;21030;-67
2020/12/24 16:44:36;;;;;;;6.35;2.37;;;;;;;1.36;94.23;98150.25;1849314;76;21003;-68
2020/12/24 16:47:05;;;;;;;4.78;1.82;;;;;;;1.37;94.13;98153.20;1852497;75;21154;-68
2020/12/24 16:49:34;;;;;;;4.12;1.90;;;;;;;1.37;94.23;98150.63;1854350;75;22447;-67
2020/12/24 16:52:03;;;;;;;2.72;1.70;;;;;;;1.37;94.17;98155.77;1855637;75;21047;-68
2020/12/24 16:54:31;;;;;;;2.58;1.30;;;;;;;1.35;94.24;98161.44;1853513;75;21095;-67
2020/12/24 16:57:00;;;;;;;2.65;1.27;;;;;;;1.31;94.21;98161.97;1857906;75;21175;-68
2020/12/24 16:59:28;;;;;;;3.02;1.80;;;;;;;1.30;94.17;98165.89;1855080;75;21018;-67
2020/12/24 17:01:57;;;;;;;3.25;1.82;;;;;;;1.28;94.28;98163.81;1849980;75;21406;-67
2020/12/24 17:04:27;;;;;;;5.40;1.92;;;;;;;1.27;94.14;98171.15;1850539;75;21163;-67
2020/12/24 17:07:00;;;;;;;1.98;1.20;;;;;;;1.25;94.21;98169.06;1847236;75;20987;-67
2020/12/24 17:09:30;;;;;;;4.30;2.02;;;;;;;1.25;94.32;98183.20;1851086;75;21111;-67
2020/12/24 17:12:01;;;;;;;3.50;1.98;;;;;;;1.26;94.29;98170.73;1851556;75;21160;-68
2020/12/24 17:14:29;;;;;;;5.40;2.05;;;;;;;1.26;94.27;98177.16;1854800;76;22178;-67
2020/12/24 17:16:57;;;;;;;4.53;2.10;;;;;;;1.27;94.24;98187.41;1853948;75;20994;-67
2020/12/24 17:19:25;;;;;;;3.40;1.82;;;;;;;1.28;94.43;98179.24;1856664;76;20991;-67
2020/12/24 17:21:53;;;;;;;5.60;2.15;;;;;;;1.30;94.26;98177.47;1853243;75;21011;-67
2020/12/24 17:24:21;;;;;;;4.12;1.67;;;;;;;1.32;94.24;98187.27;1821662;76;21096;-67
2020/12/24 17:26:48;;;;;;;;;;;;;;;1.34;94.23;98189.31;1859306;75;21182;-67
2020/12/24 17:29:15;;;;;;;5.10;1.90;;;;;;;1.36;94.36;98190.11;1820546;77;20259;-67
2020/12/24 17:31:44;;;;;;;3.30;1.35;;;;;;;1.37;94.23;98194.34;1851357;75;21187;-67
2020/12/24 17:34:11;;;;;;;4.08;1.80;;;;;;;1.39;94.36;98202.86;1857344;75;20968;-67
2020/12/24 17:36:48;;;;;;;3.37;2.08;;;;;;;1.39;94.41;98202.86;1854689;75;20999;-67
2020/12/24 17:39:17;;;;;;;3.95;2.10;;;;;;;1.40;94.56;98207.12;1853596;75;22050;-67
2020/12/24 17:41:45;;;;;;;5.60;2.33;;;;;;;1.42;94.59;98209.63;1843607;76;21063;-67
2020/12/24 17:44:13;;;;;;;4.97;2.47;;;;;;;1.45;94.66;98212.93;1827712;76;21083;-67
2020/12/24 17:46:43;;;;;;;5.75;2.42;;;;;;;1.48;94.45;98217.97;1833896;76;21104;-67
2020/12/24 17:49:10;;;;;;;4.30;2.45;;;;;;;1.51;94.69;98230.75;1841100;77;21209;-67
2020/12/24 17:51:40;;;;;;;4.80;2.72;;;;;;;1.54;94.54;98224.20;1832187;77;21459;-67
2020/12/24 17:54:08;;;;;;;3.95;2.40;;;;;;;1.58;94.59;98233.10;1832004;77;21079;-68
2020/12/24 17:56:36;;;;;;;7.42;3.15;;;;;;;1.61;94.58;98232.99;1830417;77;20984;-65
2020/12/24 17:59:05;;;;;;;4.70;3.30;;;;;;;1.62;94.59;98230.80;1830723;76;21024;-65
2020/12/24 18:01:34;;;;;;;4.22;2.55;;;;;;;1.67;94.80;98234.06;1827271;76;21127;-65
2020/12/24 18:04:03;;;;;;;4.25;2.70;;;;;;;1.71;94.74;98242.05;1789001;77;21406;-65
2020/12/24 18:06:32;;;;;;;6.62;3.20;;;;;;;1.73;94.66;98246.25;1837752;77;21039;-65
2020/12/24 18:09:01;;;;;;;4.35;2.70;;;;;;;1.76;94.59;98246.59;1839800;77;20968;-66
2020/12/24 18:11:29;;;;;;;4.08;2.30;;;;;;;1.79;94.54;98252.92;1837804;76;21124;-66
2020/12/24 18:13:57;;;;;;;4.97;2.58;;;;;;;1.81;94.49;98256.28;1836156;77;21001;-66
2020/12/24 18:16:27;;;;;;;5.37;2.95;;;;;;;1.81;94.50;98257.57;1835313;76;21244;-66
2020/12/24 18:19:11;;;;;;;;;;;;;;;;;;;;;
2020/12/24 18:32:09;;;;;;;4.95;2.40;;;;;;;1.79;94.41;98252.92;1737667;80;22679;-67
2020/12/24 18:34:41;;;;;;;5.10;2.60;;;;;;;1.76;94.38;98263.32;1716131;83;21077;-67
2020/12/24 18:37:15;;;;;;;6.67;3.10;;;;;;;1.76;94.38;98263.32;1716043;81;21211;-67
2020/12/24 18:39:44;;;;;;;6.62;3.33;;;;;;;1.78;94.42;98271.83;1717620;83;21068;-67
2020/12/24 18:42:12;;;;;;;4.83;2.67;;;;;;;1.78;94.36;98271.83;1660448;85;21630;-66
2020/12/24 18:44:39;;;;;;;4.97;2.95;;;;;;;1.81;94.41;98282.02;1667431;84;21119;-66
2020/12/24 18:47:07;;;;;;;6.90;3.30;;;;;;;1.82;94.47;98276.00;1656006;86;21064;-66
2020/12/24 18:49:40;;;;;;;6.03;2.77;;;;;;;1.82;94.53;98273.42;1682271;83;21273;-67
2020/12/24 18:52:08;;;;;;;4.55;2.50;;;;;;;1.84;94.61;98272.91;1667604;84;21134;-67
2020/12/24 18:54:38;;;;;;;4.35;2.15;;;;;;;1.86;94.69;98277.56;1631981;84;21649;-67
2020/12/24 18:57:07;;;;;;;6.10;2.30;;;;;;;1.89;94.86;98277.90;1665372;86;21186;-67
2020/12/24 18:59:35;;;;;;;7.70;2.83;;;;;;;1.91;94.75;98280.81;1659097;84;21251;-67
2020/12/24 19:02:04;;;;;;;6.30;2.22;;;;;;;1.94;94.69;98291.00;1651769;85;21267;-68
2020/12/24 19:04:32;;;;;;;3.08;1.57;;;;;;;1.97;94.71;98292.17;1680443;85;21112;-66
2020/12/24 19:07:03;;;;;;;4.45;1.90;;;;;;;2.00;95.00;98286.92;1670744;85;21616;-66
2020/12/24 19:09:44;;;;;;;4.30;2.17;;;;;;;2.10;95.08;98296.45;1874965;75;22885;-66
2020/12/24 19:12:11;;;;;;;4.05;2.22;;;;;;;2.09;95.05;98295.21;1844739;77;21039;-66
2020/12/24 19:14:41;;;;;;;2.90;1.60;;;;;;;2.12;95.05;98302.82;1845827;76;21140;-65
2020/12/24 19:17:09;;;;;;;4.30;1.92;;;;;;;2.14;95.14;98303.61;1841896;76;21138;-67
2020/12/24 19:19:38;;;;;;;5.15;2.17;;;;;;;2.16;94.96;98305.70;1844737;77;20960;-65
2020/12/24 19:22:07;;;;;;;5.90;2.35;;;;;;;2.17;94.83;98304.79;1840109;76;21056;-66
2020/12/24 19:24:36;;;;;;;4.87;2.40;;;;;;;2.17;94.86;98318.50;1799455;79;21581;-67
2020/12/24 19:27:04;;;;;;;5.30;2.60;;;;;;;2.17;94.79;98328.80;1795129;79;21338;-66
2020/12/24 19:29:33;;;;;;;5.15;2.70;;;;;;;2.17;94.86;98327.52;1792749;79;21648;-66
2020/12/24 19:32:02;;;;;;;3.98;2.00;;;;;;;2.19;94.90;98336.48;1792757;79;21878;-66
2020/12/24 19:34:34;;;;;;;4.15;2.12;;;;;;;2.20;94.76;98335.58;1784351;79;21222;-66
2020/12/24 19:37:02;;;;;;;4.28;2.22;;;;;;;2.21;94.87;98337.25;1791728;79;21139;-66
2020/12/24 19:39:32;;;;;;;4.45;2.50;;;;;;;2.22;94.88;98349.25;1790168;79;21741;-66
2020/12/24 19:42:00;;;;;;;6.22;2.35;;;;;;;2.24;94.88;98351.30;1781242;79;21154;-67
2020/12/24 19:44:32;;;;;;;2.77;1.70;;;;;;;2.26;94.93;98359.83;1800747;78;21577;-66
2020/12/24 19:47:10;;;;;;;4.47;1.75;;;;;;;2.26;94.86;98350.81;1799943;78;21633;-66
2020/12/24 19:49:38;;;;;;;4.50;2.25;;;;;;;2.27;94.92;98358.95;1793035;78;21179;-67
2020/12/24 19:52:09;;;;;;;5.50;1.90;;;;;;;2.29;94.80;98366.60;1795175;78;21278;-66
2020/12/24 19:54:41;;;;;;;4.67;2.02;;;;;;;2.30;94.76;98365.27;1807649;78;21041;-65
2020/12/24 19:57:13;;;;;;;3.27;1.65;;;;;;;2.32;94.69;98376.34;1803508;78;20993;-66
2020/12/24 19:59:46;;;;;;;5.75;1.90;;;;;;;2.33;94.70;98381.91;1805750;78;21640;-66
2020/12/24 20:02:16;;;;;;;2.65;1.55;;;;;;;2.35;94.65;98383.98;1812375;78;21147;-65
2020/12/24 20:04:44;;;;;;;4.08;2.17;;;;;;;2.36;94.73;98390.81;1804865;78;21253;-67
2020/12/24 20:07:15;;;;;;;5.83;2.00;;;;;;;2.37;94.74;98389.07;1799650;78;20985;-66
2020/12/24 20:09:43;;;;;;;7.25;2.50;;;;;;;2.40;94.73;98390.25;1798454;78;21132;-66
2020/12/24 20:12:16;;;;;;;3.67;1.72;;;;;;;2.40;94.65;98396.23;1795773;78;21637;-66
2020/12/24 20:14:47;;;;;;;2.98;1.35;;;;;;;2.41;94.74;98404.38;1796077;78;21214;-65
2020/12/24 20:17:17;;;;;;;2.98;1.32;;;;;;;2.42;94.65;98411.20;1828684;76;21206;-66
2020/12/24 20:19:54;;;;;;;3.95;1.40;;;;;;;2.43;94.64;98418.02;1824116;77;21195;-65
2020/12/24 20:22:22;;;;;;;2.35;1.10;;;;;;;2.39;94.39;98419.03;1801512;77;21231;-65
2020/12/24 20:24:52;;;;;;;2.90;1.25;;;;;;;2.25;93.88;98426.41;1825145;77;21621;-66
2020/12/24 20:27:21;;;;;;;3.10;1.40;;;;;;;2.18;93.98;98440.37;1825602;77;21195;-66
2020/12/24 20:29:49;;;;;;;3.75;1.45;;;;;;;2.09;94.05;98446.67;1820368;77;21270;-65
2020/12/24 20:32:21;;;;;;;3.08;1.10;;;;;;;1.99;93.87;98441.00;1780161;78;21053;-67
2020/12/24 20:34:54;;;;;;;3.95;1.12;;;;;;;1.90;93.90;98427.57;1824421;77;21033;-66
2020/12/24 20:37:29;;;;;;;3.80;1.30;;;;;;;1.86;94.11;98447.43;1829255;77;21144;-66
2020/12/24 20:40:00;;;;;;;2.35;1.10;;;;;;;1.85;94.27;98456.05;1835304;76;21001;-66
2020/12/24 20:42:29;;;;;;;4.90;1.20;;;;;;;1.86;94.39;98451.75;1827464;77;21188;-66
2020/12/24 20:45:01;;;;;;;1.50;0.95;;;;;;;1.85;94.45;98457.34;1827289;77;21539;-67
2020/12/24 20:47:30;;;;;;;1.98;0.70;;;;;;;1.85;94.71;98461.20;1830718;77;21058;-66
2020/12/24 20:50:03;;;;;;;2.58;1.30;;;;;;;1.86;94.77;98473.17;1823782;77;21599;-66
2020/12/24 20:52:32;;;;;;;3.30;1.07;;;;;;;1.87;94.66;98472.27;1832732;76;21222;-66
2020/12/24 20:55:02;;;;;;;0.78;0.50;;;;;;;1.88;94.82;98479.12;1836107;77;21201;-66
2020/12/24 20:57:30;;;;;;;2.05;1.10;;;;;;;1.89;94.63;98498.81;1823927;77;21068;-66
2020/12/24 21:00:03;;;;;;;3.83;1.10;;;;;;;1.90;94.73;98483.75;1833270;77;21116;-66
2020/12/24 21:02:32;;;;;;;2.50;1.00;;;;;;;1.91;94.64;98484.17;1837876;77;21680;-66
2020/12/24 21:04:59;;;;;;;3.62;1.10;;;;;;;1.90;94.85;98490.19;1837120;77;21120;-66
2020/12/24 21:07:29;;;;;;;4.42;1.20;;;;;;;1.90;94.75;98490.19;1837212;77;21413;-67
2020/12/24 21:09:57;;;;;;;2.25;0.95;;;;;;;1.90;94.70;98503.05;1842469;77;21178;-67
2020/12/24 21:12:26;;;;;;;2.20;1.02;;;;;;;1.89;94.67;98501.38;1832492;77;21056;-67
2020/12/24 21:14:55;;;;;;;1.82;0.90;;;;;;;1.89;94.68;98503.12;1840078;77;21155;-66
2020/12/24 21:17:24;;;;;;;4.25;1.00;;;;;;;1.89;94.86;98506.53;1840940;76;21060;-66
2020/12/24 21:19:53;;;;;;;2.87;1.20;;;;;;;1.88;94.92;98514.32;1847674;77;21571;-66
2020/12/24 21:22:21;;;;;;;3.98;1.50;;;;;;;1.90;94.94;98499.19;1842494;76;20961;-65
2020/12/24 21:24:49;;;;;;;4.42;1.82;;;;;;;1.92;94.90;98510.74;1850374;77;21100;-66
2020/12/24 21:27:21;;;;;;;2.98;1.45;;;;;;;1.95;94.90;98513.22;1850654;77;20992;-66
2020/12/24 21:29:49;;;;;;;5.10;1.35;;;;;;;1.98;95.02;98513.12;1839236;77;21116;-66
2020/12/24 21:32:27;;;;;;;;;;;;;;;;;;;;;
2020/12/24 21:34:56;;;;;;;3.00;0.78;;;;;;;2.11;95.02;98526.45;1871035;75;22216;-66
2020/12/24 21:37:24;;;;;;;5.55;1.50;;;;;;;2.10;95.18;98533.77;1838027;77;21659;-66
2020/12/24 21:39:52;;;;;;;2.87;1.02;;;;;;;2.13;95.11;98534.95;1847715;77;21397;-65
2020/12/24 21:42:21;;;;;;;2.45;0.93;;;;;;;2.17;95.19;98532.69;1848449;77;20993;-65
2020/12/24 21:44:50;;;;;;;3.08;1.17;;;;;;;2.19;95.15;98552.80;1848308;76;20974;-65
2020/12/24 21:47:18;;;;;;;5.95;1.15;;;;;;;2.23;95.12;98547.94;1850584;76;21048;-66
2020/12/24 21:49:47;;;;;;;;;;;;;;;2.22;95.00;98563.84;1848529;77;21048;-65
2020/12/24 21:52:16;;;;;;;6.00;1.15;;;;;;;2.23;94.95;98555.67;1848690;77;21395;-65
2020/12/24 21:54:46;;;;;;;4.50;1.30;;;;;;;2.23;94.84;98564.68;1850001;76;21107;-66
2020/12/24 21:57:16;;;;;;;7.72;1.82;;;;;;;2.22;94.78;98566.42;1840643;77;20986;-64
2020/12/24 21:59:44;;;;;;;2.98;1.10;;;;;;;2.23;94.66;98572.41;1848522;77;21542;-65
2020/12/24 22:02:13;;;;;;;5.37;1.00;;;;;;;2.21;94.47;98569.03;1845129;77;21176;-66
2020/12/24 22:04:42;;;;;;;4.85;1.25;;;;;;;2.16;94.17;98573.51;1840811;77;21192;-65
2020/12/24 22:07:11;;;;;;;5.75;1.90;;;;;;;2.13;93.76;98574.87;1846948;77;21644;-65
2020/12/24 22:09:39;;;;;;;8.03;1.57;;;;;;;2.13;94.04;98578.73;1846685;77;21095;-65
2020/12/24 22:12:09;;;;;;;11.88;2.72;;;;;;;2.11;94.03;98584.39;1846512;76;21016;-65
2020/12/24 22:14:39;;;;;;;4.65;1.50;;;;;;;2.08;93.93;98585.78;1850763;76;21610;-65
2020/12/24 22:17:08;;;;;;;5.10;1.27;;;;;;;2.05;93.80;98580.73;1848001;76;21152;-66
2020/12/24 22:20:00;;;;;;;8.78;1.90;;;;;;;2.04;93.83;98586.75;1849445;76;21007;-65
2020/12/24 22:22:29;;;;;;;10.75;1.98;;;;;;;2.01;93.76;98585.94;1726318;81;21740;-66
2020/12/24 22:24:57;;;;;;;3.80;1.20;;;;;;;1.97;93.73;98585.66;1731492;81;21072;-65
2020/12/24 22:27:27;;;;;;;2.05;0.72;;;;;;;1.94;93.68;98593.47;1739409;81;21167;-65
2020/12/24 22:29:59;;;;;;;5.28;0.80;;;;;;;1.90;93.66;98590.58;1738668;81;22114;-65
2020/12/24 22:32:31;;;;;;;6.25;1.17;;;;;;;1.87;93.47;98588.09;1731906;81;21719;-65
2020/12/24 22:34:59;;;;;;;2.77;0.55;;;;;;;1.79;92.94;98585.77;1730058;81;21214;-65